sensor_id;sensor_type;location;lat;lon;timestamp;pressure;altitude;pressure_sealevel;temperature;humidity
18813;BME280;9534;51.140;6.296;2023-08-31T00:03:05;101210.84;;;12.31;100.00
18813;BME280;9534;51.140;6.296;2023-08-31T00:07:08;101239.94;;;12.25;100.00
18813;BME280;9534;51.140;6.296;2023-08-31T00:11:11;101267.16;;;12.14;100.00
18813;BME280;9534;51.140;6.296;2023-08-31T00:15:15;101300.03;;;12.07;100.00
18813;BME280;9534;51.140;6.296;2023-08-31T00:19:19;101551.44;;;11.87;100.00
18813;BME280;9534;51.140;6.296;2023-08-31T00:23:22;101745.41;;;11.93;100.00
18813;BME280;9534;51.140;6.296;2023-08-31T00:27:25;101809.94;;;11.89;100.00
18813;BME280;9534;51.140;6.296;2023-08-31T00:31:29;101952.59;;;11.89;100.00
18813;BME280;9534;51.140;6.296;2023-08-31T00:35:33;102286.28;;;11.82;100.00
18813;BME280;9534;51.140;6.296;2023-08-31T00:39:37;102584.97;;;11.85;100.00
18813;BME280;9534;51.140;6.296;2023-08-31T00:43:40;102602.78;;;11.81;100.00
18813;BME280;9534;51.140;6.296;2023-08-31T00:47:44;102600.06;;;11.81;100.00
18813;BME280;9534;51.140;6.296;2023-08-31T00:51:49;102591.47;;;11.84;100.00
18813;BME280;9534;51.140;6.296;2023-08-31T00:55:52;102587.00;;;11.75;100.00
18813;BME280;9534;51.140;6.296;2023-08-31T00:59:55;102581.53;;;11.75;100.00
18813;BME280;9534;51.140;6.296;2023-08-31T01:04:01;102583.06;;;11.70;100.00
18813;BME280;9534;51.140;6.296;2023-08-31T01:08:10;102588.72;;;11.76;100.00
18813;BME280;9534;51.140;6.296;2023-08-31T01:12:17;102575.34;;;11.73;100.00
18813;BME280;9534;51.140;6.296;2023-08-31T01:16:21;102545.53;;;11.78;100.00
18813;BME280;9534;51.140;6.296;2023-08-31T01:20:31;102516.38;;;11.77;100.00
18813;BME280;9534;51.140;6.296;2023-08-31T01:24:38;102493.06;;;11.81;100.00
18813;BME280;9534;51.140;6.296;2023-08-31T01:28:41;102459.47;;;11.71;100.00
18813;BME280;9534;51.140;6.296;2023-08-31T01:32:44;102455.16;;;11.69;100.00
18813;BME280;9534;51.140;6.296;2023-08-31T01:36:50;102435.28;;;11.67;100.00
18813;BME280;9534;51.140;6.296;2023-08-31T01:40:58;102438.22;;;11.65;100.00
18813;BME280;9534;51.140;6.296;2023-08-31T01:45:04;102449.66;;;11.61;100.00
18813;BME280;9534;51.140;6.296;2023-08-31T01:49:07;102449.16;;;11.49;100.00
18813;BME280;9534;51.140;6.296;2023-08-31T01:53:12;102470.94;;;11.43;100.00
18813;BME280;9534;51.140;6.296;2023-08-31T01:57:17;102489.09;;;11.44;100.00
18813;BME280;9534;51.140;6.296;2023-08-31T02:01:39;102518.38;;;11.43;100.00
18813;BME280;9534;51.140;6.296;2023-08-31T02:05:42;102532.28;;;11.34;100.00
18813;BME280;9534;51.140;6.296;2023-08-31T02:09:45;102541.19;;;11.36;100.00
18813;BME280;9534;51.140;6.296;2023-08-31T02:13:49;102562.56;;;11.32;100.00
18813;BME280;9534;51.140;6.296;2023-08-31T02:17:52;102565.63;;;11.21;100.00
18813;BME280;9534;51.140;6.296;2023-08-31T02:21:56;102587.88;;;11.18;100.00
18813;BME280;9534;51.140;6.296;2023-08-31T02:25:59;102623.53;;;11.18;100.00
18813;BME280;9534;51.140;6.296;2023-08-31T02:30:04;103637.59;;;11.29;100.00
18813;BME280;9534;51.140;6.296;2023-08-31T02:34:08;103629.19;;;11.21;100.00
18813;BME280;9534;51.140;6.296;2023-08-31T02:38:11;103632.41;;;11.36;100.00
18813;BME280;9534;51.140;6.296;2023-08-31T02:42:15;103644.66;;;11.41;100.00
18813;BME280;9534;51.140;6.296;2023-08-31T02:46:23;103632.41;;;11.45;100.00
18813;BME280;9534;51.140;6.296;2023-08-31T02:50:26;103637.59;;;11.58;100.00
18813;BME280;9534;51.140;6.296;2023-08-31T02:54:29;103640.22;;;11.59;100.00
18813;BME280;9534;51.140;6.296;2023-08-31T02:58:32;103644.28;;;11.65;100.00
18813;BME280;9534;51.140;6.296;2023-08-31T03:02:36;103632.44;;;11.64;100.00
18813;BME280;9534;51.140;6.296;2023-08-31T03:06:39;103630.69;;;11.63;100.00
18813;BME280;9534;51.140;6.296;2023-08-31T03:10:42;103628.94;;;11.62;100.00
18813;BME280;9534;51.140;6.296;2023-08-31T03:14:45;103616.25;;;11.61;100.00
18813;BME280;9534;51.140;6.296;2023-08-31T03:18:50;103620.00;;;11.60;100.00
18813;BME280;9534;51.140;6.296;2023-08-31T03:22:53;103619.00;;;11.61;100.00
18813;BME280;9534;51.140;6.296;2023-08-31T03:26:55;103611.50;;;11.54;100.00
18813;BME280;9534;51.140;6.296;2023-08-31T03:31:00;103611.19;;;11.47;100.00
18813;BME280;9534;51.140;6.296;2023-08-31T03:35:05;103609.31;;;11.38;100.00
18813;BME280;9534;51.140;6.296;2023-08-31T03:39:09;103614.94;;;11.27;100.00
18813;BME280;9534;51.140;6.296;2023-08-31T03:43:11;103620.53;;;11.16;100.00
18813;BME280;9534;51.140;6.296;2023-08-31T03:47:15;103629.94;;;11.23;100.00
18813;BME280;9534;51.140;6.296;2023-08-31T03:51:19;103606.41;;;11.11;100.00
18813;BME280;9534;51.140;6.296;2023-08-31T03:55:22;103596.03;;;11.06;100.00
18813;BME280;9534;51.140;6.296;2023-08-31T03:59:26;103594.28;;;11.05;100.00
18813;BME280;9534;51.140;6.296;2023-08-31T04:03:31;103587.63;;;10.98;100.00
18813;BME280;9534;51.140;6.296;2023-08-31T04:07:35;103567.44;;;10.99;100.00
18813;BME280;9534;51.140;6.296;2023-08-31T04:11:38;103554.03;;;10.96;100.00
18813;BME280;9534;51.140;6.296;2023-08-31T04:15:42;103546.38;;;10.90;100.00
18813;BME280;9534;51.140;6.296;2023-08-31T04:19:45;103515.22;;;10.91;100.00
18813;BME280;9534;51.140;6.296;2023-08-31T04:23:49;103296.91;;;10.82;100.00
18813;BME280;9534;51.140;6.296;2023-08-31T04:27:52;103273.81;;;10.94;100.00
18813;BME280;9534;51.140;6.296;2023-08-31T04:31:55;103259.81;;;10.97;100.00
18813;BME280;9534;51.140;6.296;2023-08-31T04:35:58;103252.47;;;10.88;100.00
18813;BME280;9534;51.140;6.296;2023-08-31T04:40:02;103245.69;;;10.92;100.00
18813;BME280;9534;51.140;6.296;2023-08-31T04:44:06;103238.47;;;10.91;100.00
18813;BME280;9534;51.140;6.296;2023-08-31T04:48:09;103229.78;;;10.95;100.00
18813;BME280;9534;51.140;6.296;2023-08-31T04:52:12;103225.63;;;11.01;100.00
18813;BME280;9534;51.140;6.296;2023-08-31T04:56:16;103219.53;;;10.97;100.00
18813;BME280;9534;51.140;6.296;2023-08-31T05:00:19;103213.47;;;11.03;100.00
18813;BME280;9534;51.140;6.296;2023-08-31T05:04:22;103222.69;;;11.02;100.00
18813;BME280;9534;51.140;6.296;2023-08-31T05:08:28;103215.78;;;10.98;100.00
18813;BME280;9534;51.140;6.296;2023-08-31T05:12:32;103216.06;;;11.05;100.00
18813;BME280;9534;51.140;6.296;2023-08-31T05:16:35;103221.66;;;11.12;100.00
18813;BME280;9534;51.140;6.296;2023-08-31T05:20:39;103219.22;;;11.09;100.00
18813;BME280;9534;51.140;6.296;2023-08-31T05:24:42;103206.63;;;11.16;100.00
18813;BME280;9534;51.140;6.296;2023-08-31T05:28:47;103199.81;;;11.20;100.00
18813;BME280;9534;51.140;6.296;2023-08-31T05:32:50;103200.53;;;11.22;100.00
18813;BME280;9534;51.140;6.296;2023-08-31T05:36:53;103208.75;;;11.22;100.00
18813;BME280;9534;51.140;6.296;2023-08-31T05:41:03;103207.13;;;11.29;100.00
18813;BME280;9534;51.140;6.296;2023-08-31T05:45:08;103215.44;;;11.37;100.00
18813;BME280;9534;51.140;6.296;2023-08-31T05:49:11;103229.97;;;11.47;100.00
18813;BME280;9534;51.140;6.296;2023-08-31T05:53:14;103234.22;;;11.59;100.00
18813;BME280;9534;51.140;6.296;2023-08-31T05:57:18;103247.66;;;11.62;100.00
18813;BME280;9534;51.140;6.296;2023-08-31T06:01:23;103256.41;;;11.75;100.00
18813;BME280;9534;51.140;6.296;2023-08-31T06:05:26;103275.72;;;11.83;100.00
18813;BME280;9534;51.140;6.296;2023-08-31T06:09:31;103303.66;;;11.96;100.00
18813;BME280;9534;51.140;6.296;2023-08-31T06:13:34;103326.38;;;12.06;100.00
18813;BME280;9534;51.140;6.296;2023-08-31T06:17:38;103342.94;;;12.14;100.00
18813;BME280;9534;51.140;6.296;2023-08-31T06:21:41;103371.59;;;12.29;100.00
18813;BME280;9534;51.140;6.296;2023-08-31T06:25:44;103427.41;;;12.47;100.00
18813;BME280;9534;51.140;6.296;2023-08-31T06:29:48;103476.34;;;12.61;100.00
18813;BME280;9534;51.140;6.296;2023-08-31T06:33:52;103553.47;;;12.77;100.00
18813;BME280;9534;51.140;6.296;2023-08-31T06:37:55;103610.81;;;12.89;100.00
18813;BME280;9534;51.140;6.296;2023-08-31T06:41:59;103688.19;;;13.04;100.00
18813;BME280;9534;51.140;6.296;2023-08-31T06:46:04;103777.91;;;13.14;100.00
18813;BME280;9534;51.140;6.296;2023-08-31T06:50:25;103824.13;;;13.28;100.00
18813;BME280;9534;51.140;6.296;2023-08-31T06:54:28;103823.94;;;13.49;100.00
18813;BME280;9534;51.140;6.296;2023-08-31T06:58:32;103751.91;;;13.53;100.00
18813;BME280;9534;51.140;6.296;2023-08-31T07:02:36;103634.75;;;13.68;100.00
18813;BME280;9534;51.140;6.296;2023-08-31T07:06:41;103434.41;;;13.79;100.00
18813;BME280;9534;51.140;6.296;2023-08-31T07:10:44;103204.22;;;13.86;100.00
18813;BME280;9534;51.140;6.296;2023-08-31T07:14:49;102999.09;;;13.98;100.00
18813;BME280;9534;51.140;6.296;2023-08-31T07:18:52;102632.97;;;14.13;100.00
18813;BME280;9534;51.140;6.296;2023-08-31T07:22:56;102173.09;;;14.27;100.00
18813;BME280;9534;51.140;6.296;2023-08-31T07:27:01;101979.59;;;14.46;100.00
18813;BME280;9534;51.140;6.296;2023-08-31T07:31:05;101660.28;;;14.64;100.00
18813;BME280;9534;51.140;6.296;2023-08-31T07:35:08;101204.34;;;14.73;100.00
18813;BME280;9534;51.140;6.296;2023-08-31T07:39:13;100898.97;;;14.88;100.00
18813;BME280;9534;51.140;6.296;2023-08-31T07:43:16;100700.47;;;15.17;100.00
18813;BME280;9534;51.140;6.296;2023-08-31T07:47:19;100511.56;;;15.26;100.00
18813;BME280;9534;51.140;6.296;2023-08-31T07:51:22;100458.75;;;15.57;100.00
18813;BME280;9534;51.140;6.296;2023-08-31T07:55:29;100296.41;;;16.41;100.00
18813;BME280;9534;51.140;6.296;2023-08-31T07:59:32;100205.63;;;16.23;100.00
18813;BME280;9534;51.140;6.296;2023-08-31T08:03:35;100200.72;;;16.30;100.00
18813;BME280;9534;51.140;6.296;2023-08-31T08:07:38;100173.38;;;17.03;100.00
18813;BME280;9534;51.140;6.296;2023-08-31T08:11:45;100152.81;;;16.94;100.00
18813;BME280;9534;51.140;6.296;2023-08-31T08:15:48;100153.97;;;16.72;100.00
18813;BME280;9534;51.140;6.296;2023-08-31T08:19:51;100156.78;;;17.03;100.00
18813;BME280;9534;51.140;6.296;2023-08-31T08:23:54;100139.59;;;17.74;100.00
18813;BME280;9534;51.140;6.296;2023-08-31T08:28:00;100117.00;;;18.02;100.00
18813;BME280;9534;51.140;6.296;2023-08-31T08:32:05;100100.06;;;18.69;100.00
18813;BME280;9534;51.140;6.296;2023-08-31T08:36:08;100096.19;;;18.70;100.00
18813;BME280;9534;51.140;6.296;2023-08-31T08:40:11;100097.56;;;19.28;100.00
18813;BME280;9534;51.140;6.296;2023-08-31T08:44:15;100095.91;;;18.97;100.00
18813;BME280;9534;51.140;6.296;2023-08-31T08:48:19;100102.25;;;19.07;100.00
18813;BME280;9534;51.140;6.296;2023-08-31T08:52:23;100098.94;;;18.85;100.00
18813;BME280;9534;51.140;6.296;2023-08-31T08:56:26;100109.72;;;19.52;100.00
18813;BME280;9534;51.140;6.296;2023-08-31T09:00:30;100101.72;;;19.10;100.00
18813;BME280;9534;51.140;6.296;2023-08-31T09:04:33;100098.69;;;19.02;100.00
18813;BME280;9534;51.140;6.296;2023-08-31T09:08:36;100102.25;;;19.57;100.00
18813;BME280;9534;51.140;6.296;2023-08-31T09:12:39;100096.59;;;19.77;100.00
18813;BME280;9534;51.140;6.296;2023-08-31T09:16:45;100099.78;;;20.24;100.00
18813;BME280;9534;51.140;6.296;2023-08-31T09:20:49;100100.06;;;19.34;100.00
18813;BME280;9534;51.140;6.296;2023-08-31T09:24:53;100106.53;;;19.93;100.00
18813;BME280;9534;51.140;6.296;2023-08-31T09:28:56;100098.50;;;19.96;100.00
18813;BME280;9534;51.140;6.296;2023-08-31T09:33:00;100101.72;;;20.18;100.00
18813;BME280;9534;51.140;6.296;2023-08-31T09:37:06;100093.91;;;20.25;100.00
18813;BME280;9534;51.140;6.296;2023-08-31T09:41:10;100104.25;;;20.20;100.00
18813;BME280;9534;51.140;6.296;2023-08-31T09:45:13;100097.13;;;19.89;100.00
18813;BME280;9534;51.140;6.296;2023-08-31T09:49:18;100109.19;;;19.35;100.00
18813;BME280;9534;51.140;6.296;2023-08-31T09:53:23;100098.94;;;20.67;100.00
18813;BME280;9534;51.140;6.296;2023-08-31T09:57:30;100115.59;;;21.10;100.00
18813;BME280;9534;51.140;6.296;2023-08-31T10:01:47;100093.59;;;20.75;100.00
18813;BME280;9534;51.140;6.296;2023-08-31T10:05:52;100084.28;;;21.51;100.00
18813;BME280;9534;51.140;6.296;2023-08-31T10:09:55;100089.03;;;20.51;100.00
18813;BME280;9534;51.140;6.296;2023-08-31T10:13:59;100088.09;;;20.27;100.00
18813;BME280;9534;51.140;6.296;2023-08-31T10:18:03;100091.69;;;19.54;100.00
18813;BME280;9534;51.140;6.296;2023-08-31T10:22:08;100091.16;;;19.42;100.00
18813;BME280;9534;51.140;6.296;2023-08-31T10:26:11;100087.28;;;19.33;100.00
18813;BME280;9534;51.140;6.296;2023-08-31T10:30:24;100098.06;;;19.50;100.00
18813;BME280;9534;51.140;6.296;2023-08-31T10:34:37;100078.41;;;19.21;100.00
18813;BME280;9534;51.140;6.296;2023-08-31T10:38:44;100096.16;;;19.15;100.00
18813;BME280;9534;51.140;6.296;2023-08-31T10:42:48;100100.06;;;18.94;100.00
18813;BME280;9534;51.140;6.296;2023-08-31T10:47:11;100089.81;;;18.95;100.00
18813;BME280;9534;51.140;6.296;2023-08-31T10:51:16;100098.94;;;19.00;100.00
18813;BME280;9534;51.140;6.296;2023-08-31T10:55:21;100080.09;;;19.02;100.00
18813;BME280;9534;51.140;6.296;2023-08-31T10:59:40;100077.09;;;19.97;100.00
18813;BME280;9534;51.140;6.296;2023-08-31T11:03:56;100075.00;;;19.64;100.00
18813;BME280;9534;51.140;6.296;2023-08-31T11:07:59;100086.72;;;19.46;100.00
18813;BME280;9534;51.140;6.296;2023-08-31T11:12:06;100082.84;;;18.92;100.00
18813;BME280;9534;51.140;6.296;2023-08-31T11:16:09;100077.47;;;20.77;100.00
18813;BME280;9534;51.140;6.296;2023-08-31T11:20:13;100077.84;;;20.99;100.00
18813;BME280;9534;51.140;6.296;2023-08-31T11:24:17;100081.72;;;20.16;100.00
18813;BME280;9534;51.140;6.296;2023-08-31T11:28:21;100070.63;;;20.16;100.00
18813;BME280;9534;51.140;6.296;2023-08-31T11:32:24;100073.81;;;19.80;100.00
18813;BME280;9534;51.140;6.296;2023-08-31T11:36:27;100069.13;;;20.39;100.00
18813;BME280;9534;51.140;6.296;2023-08-31T11:40:30;100069.91;;;21.16;100.00
18813;BME280;9534;51.140;6.296;2023-08-31T11:44:35;100078.78;;;21.46;100.00
18813;BME280;9534;51.140;6.296;2023-08-31T11:48:38;100079.94;;;22.34;100.00
18813;BME280;9534;51.140;6.296;2023-08-31T11:52:42;100077.91;;;22.40;100.00
18813;BME280;9534;51.140;6.296;2023-08-31T11:56:45;100084.13;;;22.92;100.00
18813;BME280;9534;51.140;6.296;2023-08-31T12:00:57;100075.72;;;22.18;100.00
18813;BME280;9534;51.140;6.296;2023-08-31T12:05:01;100081.56;;;22.77;100.00
18813;BME280;9534;51.140;6.296;2023-08-31T12:09:04;100083.56;;;22.35;100.00
18813;BME280;9534;51.140;6.296;2023-08-31T12:13:07;100084.31;;;20.90;100.00
18813;BME280;9534;51.140;6.296;2023-08-31T12:17:13;100077.28;;;21.30;100.00
18813;BME280;9534;51.140;6.296;2023-08-31T12:21:21;100076.03;;;21.93;100.00
18813;BME280;9534;51.140;6.296;2023-08-31T12:25:24;100069.59;;;23.08;100.00
18813;BME280;9534;51.140;6.296;2023-08-31T12:29:27;100081.53;;;22.40;100.00
18813;BME280;9534;51.140;6.296;2023-08-31T12:33:33;100068.03;;;22.29;100.00
18813;BME280;9534;51.140;6.296;2023-08-31T12:37:37;100066.91;;;22.85;100.00
18813;BME280;9534;51.140;6.296;2023-08-31T12:41:40;100076.78;;;22.77;100.00
18813;BME280;9534;51.140;6.296;2023-08-31T12:45:43;100060.72;;;22.88;100.00
18813;BME280;9534;51.140;6.296;2023-08-31T12:49:48;100057.47;;;22.99;100.00
18813;BME280;9534;51.140;6.296;2023-08-31T12:53:51;100062.88;;;22.59;100.00
18813;BME280;9534;51.140;6.296;2023-08-31T12:57:53;100072.66;;;22.75;100.00
18813;BME280;9534;51.140;6.296;2023-08-31T13:01:57;100055.88;;;22.61;100.00
18813;BME280;9534;51.140;6.296;2023-08-31T13:06:01;100056.63;;;23.89;100.00
18813;BME280;9534;51.140;6.296;2023-08-31T13:10:05;100051.63;;;23.46;100.00
18813;BME280;9534;51.140;6.296;2023-08-31T13:14:08;100039.53;;;23.19;100.00
18813;BME280;9534;51.140;6.296;2023-08-31T13:18:11;100036.63;;;22.60;100.00
18813;BME280;9534;51.140;6.296;2023-08-31T13:22:16;100039.06;;;22.48;100.00
18813;BME280;9534;51.140;6.296;2023-08-31T13:26:19;100023.38;;;21.68;100.00
18813;BME280;9534;51.140;6.296;2023-08-31T13:30:22;100014.81;;;21.65;100.00
18813;BME280;9534;51.140;6.296;2023-08-31T13:34:25;100047.53;;;22.20;100.00
18813;BME280;9534;51.140;6.296;2023-08-31T13:38:29;100061.66;;;22.65;100.00
18813;BME280;9534;51.140;6.296;2023-08-31T13:42:33;100066.19;;;22.61;100.00
18813;BME280;9534;51.140;6.296;2023-08-31T13:46:36;100063.41;;;21.77;100.00
18813;BME280;9534;51.140;6.296;2023-08-31T13:50:40;100057.09;;;21.43;100.00
18813;BME280;9534;51.140;6.296;2023-08-31T13:54:44;100055.00;;;22.79;100.00
18813;BME280;9534;51.140;6.296;2023-08-31T13:58:48;100056.84;;;22.52;100.00
18813;BME280;9534;51.140;6.296;2023-08-31T14:02:51;100056.84;;;22.52;100.00
18813;BME280;9534;51.140;6.296;2023-08-31T14:06:54;100066.00;;;22.34;100.00
18813;BME280;9534;51.140;6.296;2023-08-31T14:10:58;100071.19;;;22.22;100.00
18813;BME280;9534;51.140;6.296;2023-08-31T14:15:04;100070.75;;;21.17;100.00
18813;BME280;9534;51.140;6.296;2023-08-31T14:19:07;100065.09;;;21.26;100.00
18813;BME280;9534;51.140;6.296;2023-08-31T14:23:11;100057.88;;;22.19;100.00
18813;BME280;9534;51.140;6.296;2023-08-31T14:27:15;100062.34;;;21.21;100.00
18813;BME280;9534;51.140;6.296;2023-08-31T14:31:18;100064.78;;;21.00;100.00
18813;BME280;9534;51.140;6.296;2023-08-31T14:35:21;100062.72;;;21.10;100.00
18813;BME280;9534;51.140;6.296;2023-08-31T14:39:24;100061.41;;;21.03;100.00
18813;BME280;9534;51.140;6.296;2023-08-31T14:43:32;100062.44;;;21.12;100.00
18813;BME280;9534;51.140;6.296;2023-08-31T14:47:35;100061.81;;;21.71;100.00
18813;BME280;9534;51.140;6.296;2023-08-31T14:51:38;100072.28;;;22.44;100.00
18813;BME280;9534;51.140;6.296;2023-08-31T14:55:47;100079.97;;;21.92;100.00
18813;BME280;9534;51.140;6.296;2023-08-31T14:59:51;100086.00;;;20.86;100.00
18813;BME280;9534;51.140;6.296;2023-08-31T15:03:55;100090.09;;;20.60;100.00
18813;BME280;9534;51.140;6.296;2023-08-31T15:07:58;100082.41;;;20.47;100.00
18813;BME280;9534;51.140;6.296;2023-08-31T15:12:01;100077.44;;;20.44;100.00
18813;BME280;9534;51.140;6.296;2023-08-31T15:16:06;100070.28;;;20.33;100.00
18813;BME280;9534;51.140;6.296;2023-08-31T15:20:10;100085.88;;;20.24;100.00
18813;BME280;9534;51.140;6.296;2023-08-31T15:24:13;100082.59;;;20.07;100.00
18813;BME280;9534;51.140;6.296;2023-08-31T15:28:16;100084.25;;;20.18;100.00
18813;BME280;9534;51.140;6.296;2023-08-31T15:32:20;100081.91;;;20.40;100.00
18813;BME280;9534;51.140;6.296;2023-08-31T15:36:23;100103.09;;;20.26;100.00
18813;BME280;9534;51.140;6.296;2023-08-31T15:40:26;100103.84;;;21.46;100.00
18813;BME280;9534;51.140;6.296;2023-08-31T15:44:29;100118.06;;;21.73;100.00
18813;BME280;9534;51.140;6.296;2023-08-31T15:48:33;100099.44;;;22.34;100.00
18813;BME280;9534;51.140;6.296;2023-08-31T15:52:36;100123.66;;;22.39;100.00
18813;BME280;9534;51.140;6.296;2023-08-31T15:56:40;100107.94;;;21.82;100.00
18813;BME280;9534;51.140;6.296;2023-08-31T16:00:43;100115.63;;;21.67;100.00
18813;BME280;9534;51.140;6.296;2023-08-31T16:04:47;100111.56;;;20.93;100.00
18813;BME280;9534;51.140;6.296;2023-08-31T16:08:50;100103.16;;;20.06;100.00
18813;BME280;9534;51.140;6.296;2023-08-31T16:12:54;100095.31;;;20.28;100.00
18813;BME280;9534;51.140;6.296;2023-08-31T16:16:57;100100.38;;;20.06;100.00
18813;BME280;9534;51.140;6.296;2023-08-31T16:21:02;100094.91;;;19.86;100.00
18813;BME280;9534;51.140;6.296;2023-08-31T16:25:06;100100.56;;;19.56;100.00
18813;BME280;9534;51.140;6.296;2023-08-31T16:29:09;100103.38;;;19.36;100.00
18813;BME280;9534;51.140;6.296;2023-08-31T16:33:12;100100.59;;;19.41;100.00
18813;BME280;9534;51.140;6.296;2023-08-31T16:37:17;100101.97;;;19.44;100.00
18813;BME280;9534;51.140;6.296;2023-08-31T16:41:20;100104.50;;;19.30;100.00
18813;BME280;9534;51.140;6.296;2023-08-31T16:45:23;100110.00;;;19.60;100.00
18813;BME280;9534;51.140;6.296;2023-08-31T16:49:26;100111.63;;;19.71;100.00
18813;BME280;9534;51.140;6.296;2023-08-31T16:53:31;100092.09;;;19.96;100.00
18813;BME280;9534;51.140;6.296;2023-08-31T16:57:36;100100.44;;;20.93;100.00
18813;BME280;9534;51.140;6.296;2023-08-31T17:01:39;100108.63;;;20.74;100.00
18813;BME280;9534;51.140;6.296;2023-08-31T17:05:42;100107.28;;;20.18;100.00
18813;BME280;9534;51.140;6.296;2023-08-31T17:09:47;100103.34;;;19.56;100.00
18813;BME280;9534;51.140;6.296;2023-08-31T17:13:50;100105.84;;;19.43;100.00
18813;BME280;9534;51.140;6.296;2023-08-31T17:17:54;100099.50;;;19.32;100.00
18813;BME280;9534;51.140;6.296;2023-08-31T17:21:57;100094.53;;;19.24;100.00
18813;BME280;9534;51.140;6.296;2023-08-31T17:26:02;100103.94;;;19.03;100.00
18813;BME280;9534;51.140;6.296;2023-08-31T17:30:05;100103.38;;;18.86;100.00
18813;BME280;9534;51.140;6.296;2023-08-31T17:34:09;100104.50;;;19.00;100.00
18813;BME280;9534;51.140;6.296;2023-08-31T17:38:13;100111.16;;;19.29;100.00
18813;BME280;9534;51.140;6.296;2023-08-31T17:42:18;100108.09;;;19.11;100.00
18813;BME280;9534;51.140;6.296;2023-08-31T17:46:21;100113.38;;;18.97;100.00
18813;BME280;9534;51.140;6.296;2023-08-31T17:50:24;100112.81;;;19.10;100.00
18813;BME280;9534;51.140;6.296;2023-08-31T17:54:27;100118.34;;;18.95;100.00
18813;BME280;9534;51.140;6.296;2023-08-31T17:58:31;100115.56;;;18.80;100.00
18813;BME280;9534;51.140;6.296;2023-08-31T18:02:35;100123.28;;;18.44;100.00
18813;BME280;9534;51.140;6.296;2023-08-31T18:06:38;100142.59;;;18.29;100.00
18813;BME280;9534;51.140;6.296;2023-08-31T18:10:42;100132.00;;;18.11;100.00
18813;BME280;9534;51.140;6.296;2023-08-31T18:14:46;100133.06;;;17.95;100.00
18813;BME280;9534;51.140;6.296;2023-08-31T18:18:49;100139.91;;;17.82;100.00
18813;BME280;9534;51.140;6.296;2023-08-31T18:22:52;100146.78;;;17.70;100.00
18813;BME280;9534;51.140;6.296;2023-08-31T18:26:55;100140.56;;;17.53;100.00
18813;BME280;9534;51.140;6.296;2023-08-31T18:31:00;100162.00;;;17.36;100.00
18813;BME280;9534;51.140;6.296;2023-08-31T18:35:05;100163.31;;;17.24;100.00
18813;BME280;9534;51.140;6.296;2023-08-31T18:39:08;100157.44;;;17.20;100.00
18813;BME280;9534;51.140;6.296;2023-08-31T18:43:11;100163.13;;;17.04;100.00
18813;BME280;9534;51.140;6.296;2023-08-31T18:47:15;100167.13;;;16.86;100.00
18813;BME280;9534;51.140;6.296;2023-08-31T18:51:18;100170.31;;;16.73;100.00
18813;BME280;9534;51.140;6.296;2023-08-31T18:55:21;100167.22;;;16.70;100.00
18813;BME280;9534;51.140;6.296;2023-08-31T18:59:25;100183.38;;;16.56;100.00
18813;BME280;9534;51.140;6.296;2023-08-31T19:03:29;100193.16;;;16.42;100.00
18813;BME280;9534;51.140;6.296;2023-08-31T19:07:32;100184.78;;;16.37;100.00
18813;BME280;9534;51.140;6.296;2023-08-31T19:11:35;100194.00;;;16.21;100.00
18813;BME280;9534;51.140;6.296;2023-08-31T19:15:38;100190.09;;;16.17;100.00
18813;BME280;9534;51.140;6.296;2023-08-31T19:19:43;100199.63;;;16.10;100.00
18813;BME280;9534;51.140;6.296;2023-08-31T19:23:47;100199.94;;;15.92;100.00
18813;BME280;9534;51.140;6.296;2023-08-31T19:27:50;100206.25;;;15.88;100.00
18813;BME280;9534;51.140;6.296;2023-08-31T19:31:53;100215.47;;;15.77;100.00
18813;BME280;9534;51.140;6.296;2023-08-31T19:35:58;100223.50;;;15.62;100.00
18813;BME280;9534;51.140;6.296;2023-08-31T19:40:03;100231.88;;;15.67;100.00
18813;BME280;9534;51.140;6.296;2023-08-31T19:44:08;100225.53;;;15.50;100.00
18813;BME280;9534;51.140;6.296;2023-08-31T19:48:12;100231.22;;;15.43;100.00
18813;BME280;9534;51.140;6.296;2023-08-31T19:52:17;100236.72;;;15.27;100.00
18813;BME280;9534;51.140;6.296;2023-08-31T19:56:21;100243.97;;;15.16;100.00
18813;BME280;9534;51.140;6.296;2023-08-31T20:00:25;100248.06;;;15.14;100.00
18813;BME280;9534;51.140;6.296;2023-08-31T20:04:29;100259.72;;;15.04;100.00
18813;BME280;9534;51.140;6.296;2023-08-31T20:08:34;100261.00;;;15.13;100.00
18813;BME280;9534;51.140;6.296;2023-08-31T20:12:39;100259.97;;;15.03;100.00
18813;BME280;9534;51.140;6.296;2023-08-31T20:16:42;100269.34;;;15.02;100.00
18813;BME280;9534;51.140;6.296;2023-08-31T20:20:47;100276.81;;;14.90;100.00
18813;BME280;9534;51.140;6.296;2023-08-31T20:24:51;100284.59;;;14.93;100.00
18813;BME280;9534;51.140;6.296;2023-08-31T20:28:54;100288.22;;;14.82;100.00
18813;BME280;9534;51.140;6.296;2023-08-31T20:32:57;100293.06;;;14.75;100.00
18813;BME280;9534;51.140;6.296;2023-08-31T20:37:00;100312.22;;;14.70;100.00
18813;BME280;9534;51.140;6.296;2023-08-31T20:41:06;100308.28;;;14.78;100.00
18813;BME280;9534;51.140;6.296;2023-08-31T20:45:10;100309.47;;;14.70;100.00
18813;BME280;9534;51.140;6.296;2023-08-31T20:49:13;100312.03;;;14.60;100.00
18813;BME280;9534;51.140;6.296;2023-08-31T20:53:16;100314.19;;;14.58;100.00
18813;BME280;9534;51.140;6.296;2023-08-31T20:57:21;100316.34;;;14.56;100.00
18813;BME280;9534;51.140;6.296;2023-08-31T21:01:24;100308.59;;;14.53;100.00
18813;BME280;9534;51.140;6.296;2023-08-31T21:05:27;100322.75;;;14.45;100.00
18813;BME280;9534;51.140;6.296;2023-08-31T21:09:30;100329.81;;;14.41;100.00
18813;BME280;9534;51.140;6.296;2023-08-31T21:13:35;100316.63;;;14.43;100.00
18813;BME280;9534;51.140;6.296;2023-08-31T21:17:38;100332.31;;;14.43;100.00